createdAt,value
2023-08-22T07:31:05.145Z,52.06
2023-08-22T07:33:31.621Z,51.05
2023-08-22T07:35:58.417Z,50.37
2023-08-22T07:38:24.892Z,49.65
2023-08-22T07:40:51.329Z,48.79
2023-08-22T07:43:17.724Z,48.21
2023-08-22T07:45:44.161Z,48.06
2023-08-22T07:48:10.975Z,47.83
2023-08-22T07:50:37.594Z,47.88
2023-08-22T07:53:05.748Z,47.57
2023-08-22T07:55:32.300Z,48.38
2023-08-22T07:57:58.712Z,47.85
2023-08-22T08:00:25.108Z,46.59
2023-08-22T08:02:51.588Z,47.21
2023-08-22T08:05:19.028Z,48.03
2023-08-22T08:07:46.289Z,48.05
2023-08-22T08:10:12.811Z,48.39
2023-08-22T08:12:39.266Z,48.24
2023-08-22T08:15:06.133Z,48.17
2023-08-22T08:17:32.616Z,48.16
2023-08-22T08:19:59.098Z,47.52
2023-08-22T08:22:25.579Z,46.95
2023-08-22T08:24:52.087Z,47.73
2023-08-22T08:27:18.492Z,47.34
2023-08-22T08:29:44.955Z,46.63
2023-08-22T08:32:11.813Z,46.56
2023-08-22T08:34:38.294Z,46.06
2023-08-22T08:37:05.350Z,45.72
2023-08-22T08:39:31.850Z,46.58
2023-08-22T08:42:09.344Z,45.47
2023-08-22T08:44:38.716Z,46.09
2023-08-22T08:47:07.155Z,46.55
2023-08-22T08:49:37.409Z,46.50
2023-08-22T08:52:09.718Z,47.88
2023-08-22T08:54:36.856Z,48.04
2023-08-22T08:57:06.210Z,48.09
2023-08-22T08:59:33.032Z,45.39
2023-08-22T09:02:01.077Z,46.08
2023-08-22T09:04:27.691Z,45.22
2023-08-22T09:06:54.102Z,45.13
2023-08-22T09:09:21.997Z,45.25
2023-08-22T09:11:51.483Z,44.28
2023-08-22T09:14:22.070Z,43.46
2023-08-22T09:16:51.485Z,43.45
2023-08-22T09:19:17.943Z,43.39
2023-08-22T09:21:58.490Z,44.48
2023-08-22T09:24:25.835Z,44.02
2023-08-22T09:26:52.287Z,44.56
2023-08-22T09:29:36.061Z,43.38
2023-08-22T09:32:02.551Z,44.12
2023-08-22T09:34:29.531Z,43.58
2023-08-22T09:36:55.929Z,43.64
2023-08-22T09:39:23.734Z,42.66
2023-08-22T09:41:54.237Z,41.54
2023-08-22T09:44:28.336Z,42.14
2023-08-22T09:46:56.557Z,42.49
2023-08-22T09:49:23.843Z,44.02
2023-08-22T09:51:53.615Z,42.90
2023-08-22T09:54:20.194Z,42.69
2023-08-22T09:56:46.873Z,42.12
2023-08-22T09:59:15.413Z,42.33
2023-08-22T10:01:42.920Z,42.56
2023-08-22T10:04:10.458Z,42.14
2023-08-22T10:06:46.356Z,41.73
2023-08-22T10:09:13.926Z,42.53
2023-08-22T10:11:47.649Z,42.48
2023-08-22T10:14:19.826Z,42.69
2023-08-22T10:16:47.177Z,42.63
2023-08-22T10:19:13.877Z,41.52
2023-08-22T10:22:11.020Z,41.14
2023-08-22T10:24:37.614Z,41.40
2023-08-22T10:27:05.900Z,41.36
2023-08-22T10:29:37.768Z,41.16
2023-08-22T10:32:04.321Z,41.60
2023-08-22T10:34:39.963Z,42.42
2023-08-22T10:37:15.276Z,41.82
2023-08-22T10:39:43.679Z,42.58
2023-08-22T10:42:26.638Z,41.00
2023-08-22T10:44:57.148Z,42.06
2023-08-22T10:47:25.869Z,42.74
2023-08-22T10:52:27.596Z,44.95
2023-08-22T10:55:01.281Z,44.77
2023-08-22T10:57:34.999Z,45.27
2023-08-22T11:00:01.921Z,45.88
2023-08-22T11:02:35.952Z,45.07
2023-08-22T11:05:06.718Z,46.45
2023-08-22T11:07:33.301Z,45.76
2023-08-22T11:09:59.714Z,45.25
2023-08-22T11:12:28.289Z,45.07
2023-08-22T11:14:56.099Z,45.10
2023-08-22T11:17:23.303Z,47.45
2023-08-22T11:19:52.600Z,47.05
2023-08-22T11:22:19.074Z,45.09
2023-08-22T11:24:46.963Z,46.08
2023-08-22T11:27:14.634Z,45.27
2023-08-22T11:29:43.693Z,46.62
2023-08-22T11:32:24.184Z,45.99
2023-08-22T11:34:52.616Z,44.74
2023-08-22T11:37:20.054Z,44.30
2023-08-22T11:39:47.914Z,44.40
2023-08-22T11:42:16.534Z,44.26
2023-08-22T11:45:04.474Z,43.54
2023-08-22T11:47:55.309Z,42.59
2023-08-22T11:50:25.905Z,42.59
2023-08-22T11:52:57.559Z,41.39
2023-08-22T11:55:27.047Z,40.68
2023-08-22T11:58:00.006Z,40.03
2023-08-22T12:00:28.402Z,39.95
2023-08-22T12:02:56.788Z,39.88
2023-08-22T12:05:34.016Z,38.26
2023-08-22T12:08:15.634Z,37.57
2023-08-22T12:10:53.063Z,38.95
2023-08-22T12:13:24.407Z,38.30
2023-08-22T12:15:52.090Z,37.87
2023-08-22T12:18:19.216Z,37.85
2023-08-22T12:20:46.997Z,37.66
2023-08-22T12:23:15.524Z,38.75
2023-08-22T12:25:43.186Z,40.34
2023-08-22T12:28:10.632Z,40.03
2023-08-22T12:30:38.286Z,41.22
2023-08-22T12:33:06.210Z,40.01
2023-08-22T12:35:33.800Z,41.37
2023-08-22T12:38:01.018Z,38.93
2023-08-22T12:40:27.930Z,39.40
2023-08-22T12:42:55.975Z,40.73
2023-08-22T12:45:23.549Z,39.83
2023-08-22T12:47:50.899Z,39.76
2023-08-22T12:50:17.573Z,39.93
2023-08-22T12:52:44.702Z,38.61
2023-08-22T12:55:11.350Z,38.02
2023-08-22T12:57:41.939Z,37.81
2023-08-22T13:00:10.129Z,40.03
2023-08-22T13:02:42.780Z,39.82
2023-08-22T13:05:09.432Z,39.79
2023-08-22T13:07:36.057Z,40.50
2023-08-22T13:10:02.609Z,41.57
2023-08-22T13:12:29.022Z,40.48
2023-08-22T13:14:55.449Z,40.87
2023-08-22T13:17:21.902Z,40.65
2023-08-22T13:19:48.309Z,41.12
2023-08-22T13:22:15.325Z,41.58
2023-08-22T13:24:41.727Z,41.48
2023-08-22T13:27:08.357Z,41.06
2023-08-22T13:29:34.776Z,40.13
2023-08-22T13:32:01.193Z,41.00
2023-08-22T13:34:27.837Z,39.80
2023-08-22T13:36:54.245Z,40.54
2023-08-22T13:39:20.649Z,41.85
2023-08-22T13:41:48.049Z,40.91
2023-08-22T13:44:14.525Z,39.99
2023-08-22T13:46:41.553Z,41.15
2023-08-22T13:49:08.614Z,40.75
2023-08-22T13:51:35.145Z,39.79
2023-08-22T13:54:03.796Z,40.75
2023-08-22T13:56:31.654Z,40.71
2023-08-22T13:58:58.885Z,39.17
2023-08-22T14:01:25.596Z,40.07
2023-08-22T14:03:53.031Z,40.71
2023-08-22T14:06:19.440Z,38.91
2023-08-22T14:08:47.924Z,39.96
2023-08-22T14:11:14.874Z,39.95
2023-08-22T14:13:43.399Z,39.76
2023-08-22T14:16:09.879Z,38.92
2023-08-22T14:18:36.374Z,39.74
2023-08-22T14:21:02.876Z,38.64
2023-08-22T14:23:29.312Z,38.87
2023-08-22T14:25:55.724Z,38.81
2023-08-22T14:28:22.152Z,36.89
2023-08-22T14:30:48.584Z,36.38
2023-08-22T14:33:15.064Z,37.05
2023-08-22T14:35:42.629Z,38.05
2023-08-22T14:38:09.052Z,39.47
2023-08-22T14:40:35.464Z,40.86
2023-08-22T14:43:01.888Z,40.11
2023-08-22T14:45:28.418Z,41.23
2023-08-22T14:47:54.905Z,41.08
2023-08-22T14:50:21.348Z,41.94
2023-08-22T14:52:47.773Z,39.77
2023-08-22T14:55:14.168Z,40.17
2023-08-22T14:57:40.570Z,41.25
2023-08-22T15:00:11.191Z,41.84
2023-08-22T15:02:37.849Z,41.20
2023-08-22T15:05:04.594Z,40.96
2023-08-22T15:07:31.001Z,40.75
2023-08-22T15:09:58.422Z,40.67
2023-08-22T15:12:25.180Z,40.81
2023-08-22T15:14:51.615Z,41.31
2023-08-22T15:17:18.173Z,42.49
2023-08-22T15:19:44.633Z,41.46
2023-08-22T15:22:11.182Z,40.35
2023-08-22T15:24:37.607Z,39.93
2023-08-22T15:27:04.393Z,39.57
2023-08-22T15:29:30.826Z,41.41
2023-08-22T15:31:57.315Z,40.71
2023-08-22T15:34:25.336Z,42.46
2023-08-22T15:36:52.004Z,42.23
2023-08-22T15:39:18.550Z,42.22
2023-08-22T15:41:44.991Z,43.37
2023-08-22T15:44:11.496Z,42.69
2023-08-22T15:46:37.971Z,43.39
2023-08-22T15:49:04.407Z,42.79
2023-08-22T15:51:30.838Z,43.53
2023-08-22T15:53:57.242Z,41.98
2023-08-22T15:56:24.058Z,42.35
2023-08-22T15:58:51.275Z,42.29
2023-08-22T16:01:17.710Z,42.04
2023-08-22T16:03:44.229Z,42.18
2023-08-22T16:06:11.866Z,42.04
2023-08-22T16:08:38.428Z,42.87
2023-08-22T16:11:04.825Z,43.10
2023-08-22T16:13:31.250Z,42.37
2023-08-22T16:15:58.201Z,42.86
2023-08-22T16:18:24.880Z,43.25
2023-08-22T16:20:53.291Z,43.97
2023-08-22T16:23:19.939Z,41.15
2023-08-22T16:25:46.505Z,39.91
2023-08-22T16:28:13.006Z,40.60
2023-08-22T16:30:40.159Z,34.15
2023-08-22T16:33:06.830Z,33.80
2023-08-22T16:43:00.692Z,36.11
2023-08-22T16:45:27.097Z,38.69
2023-08-22T16:47:53.563Z,39.40
2023-08-22T16:50:20.655Z,36.23
2023-08-22T16:52:47.225Z,35.82
2023-08-22T16:55:13.655Z,32.38
2023-08-22T16:57:40.376Z,32.82
2023-08-22T17:00:12.644Z,33.73
2023-08-22T17:02:39.354Z,35.34
2023-08-22T17:05:06.922Z,34.71
2023-08-22T17:07:33.342Z,35.14
2023-08-22T17:13:46.806Z,36.32
2023-08-22T17:16:13.317Z,37.24
2023-08-22T17:18:40.505Z,38.58
2023-08-22T17:21:15.307Z,39.56
2023-08-22T17:23:43.208Z,39.68
2023-08-22T17:26:13.026Z,38.70
2023-08-22T17:28:40.656Z,39.02
2023-08-22T17:31:10.921Z,38.24
2023-08-22T17:33:40.323Z,37.26
2023-08-22T17:36:09.195Z,39.53
2023-08-22T17:38:35.982Z,38.68
2023-08-22T17:41:04.089Z,39.74
2023-08-22T17:43:31.795Z,39.21
2023-08-22T17:45:58.594Z,39.33
2023-08-22T17:48:25.085Z,40.03
2023-08-22T17:50:52.946Z,40.65
2023-08-22T17:53:21.056Z,41.13
2023-08-22T17:55:47.940Z,41.22
2023-08-22T17:58:14.395Z,41.76
2023-08-22T18:00:41.642Z,41.84
2023-08-22T18:03:08.369Z,41.07
2023-08-22T18:05:34.807Z,41.80
2023-08-22T18:08:01.224Z,41.44
2023-08-22T18:10:27.949Z,41.80
2023-08-22T18:12:54.359Z,42.26
2023-08-22T18:15:20.787Z,43.20
2023-08-22T18:17:47.922Z,43.58
2023-08-22T18:20:14.725Z,43.29
2023-08-22T18:22:41.191Z,43.36
2023-08-22T18:25:07.745Z,44.04
2023-08-22T18:27:34.281Z,44.39
2023-08-22T18:30:00.738Z,44.88
2023-08-22T18:32:29.268Z,44.28
2023-08-22T18:34:55.769Z,44.47
2023-08-22T18:37:22.232Z,45.03
2023-08-22T18:39:48.735Z,44.94
2023-08-22T18:42:15.156Z,44.62
2023-08-22T18:44:41.605Z,45.43
2023-08-22T18:47:08.018Z,45.58
2023-08-22T18:49:34.450Z,45.35
2023-08-22T18:52:01.054Z,45.35
2023-08-22T18:54:27.686Z,45.92
2023-08-22T18:56:54.091Z,46.29
2023-08-22T18:59:20.585Z,46.42
2023-08-22T19:01:47.033Z,46.17
2023-08-22T19:04:13.437Z,45.68
2023-08-22T19:06:39.843Z,46.49
2023-08-22T19:09:06.297Z,46.98
2023-08-22T19:11:32.718Z,46.79
2023-08-22T19:13:59.131Z,47.97
2023-08-22T19:16:25.857Z,48.36
2023-08-22T19:18:52.259Z,49.51
2023-08-22T19:21:18.764Z,48.15
2023-08-22T19:23:45.202Z,49.64
2023-08-22T19:26:11.600Z,50.39
2023-08-22T19:28:38.032Z,50.30
2023-08-22T19:31:04.540Z,49.43
2023-08-22T19:33:31.863Z,48.87
2023-08-22T19:35:58.388Z,48.72
2023-08-22T19:38:24.825Z,49.03
2023-08-22T19:40:52.413Z,48.73
2023-08-22T19:43:18.844Z,49.11
2023-08-22T19:45:45.600Z,49.24
2023-08-22T19:48:12.313Z,49.93
2023-08-22T19:50:38.824Z,48.76
2023-08-22T19:53:06.095Z,50.22
2023-08-22T19:55:32.796Z,51.66
2023-08-22T19:57:59.240Z,50.29
2023-08-22T20:00:25.671Z,51.19
2023-08-22T20:02:52.184Z,49.17
2023-08-22T20:05:18.961Z,50.67
2023-08-22T20:07:55.634Z,51.14
2023-08-22T20:10:22.588Z,51.61
2023-08-22T20:12:51.888Z,50.90
2023-08-22T20:15:18.430Z,51.71
2023-08-22T20:17:46.077Z,51.60
2023-08-22T20:20:13.002Z,52.52
2023-08-22T20:22:40.568Z,53.28
2023-08-22T20:25:07.728Z,52.09
2023-08-22T20:27:34.138Z,53.14
2023-08-22T20:30:00.586Z,53.88
2023-08-22T20:32:27.010Z,53.36
2023-08-22T20:34:53.890Z,52.84
2023-08-22T20:37:20.373Z,52.87
2023-08-22T20:39:46.795Z,52.20
2023-08-22T20:42:13.374Z,52.56
2023-08-22T20:44:39.816Z,52.84
2023-08-22T20:47:06.253Z,53.53
2023-08-22T20:49:32.702Z,53.82
2023-08-22T20:51:59.146Z,53.97
2023-08-22T20:54:28.370Z,53.85
2023-08-22T20:56:54.838Z,55.14
2023-08-22T20:59:21.394Z,54.07
2023-08-22T21:01:47.899Z,55.03
2023-08-22T21:04:14.331Z,55.52
2023-08-22T21:06:40.747Z,54.22
2023-08-22T21:09:07.175Z,55.61
2023-08-22T21:11:33.585Z,55.56
2023-08-22T21:14:00.028Z,55.34
2023-08-22T21:16:26.550Z,55.58
2023-08-22T21:18:53.017Z,56.80
2023-08-22T21:21:19.431Z,56.13
2023-08-22T21:23:45.837Z,56.86
2023-08-22T21:26:12.239Z,56.28
2023-08-22T21:28:38.686Z,55.93
2023-08-22T21:31:05.127Z,55.80
2023-08-22T21:33:31.676Z,56.15
2023-08-22T21:35:58.128Z,57.29
2023-08-22T21:38:24.693Z,57.27
2023-08-22T21:40:51.110Z,57.60
2023-08-22T21:43:17.551Z,56.88
2023-08-22T21:45:43.990Z,57.17
2023-08-22T21:48:10.456Z,57.12
2023-08-22T21:50:36.949Z,57.60
2023-08-22T21:53:03.646Z,57.14
2023-08-22T21:55:30.069Z,57.47
2023-08-22T21:57:56.499Z,57.65
2023-08-22T22:00:22.937Z,57.33
2023-08-22T22:02:49.704Z,57.56
2023-08-22T22:05:16.795Z,57.84
2023-08-22T22:07:43.210Z,57.95
2023-08-22T22:10:09.816Z,56.77
2023-08-22T22:12:36.332Z,57.62
2023-08-22T22:15:02.879Z,58.11
2023-08-22T22:17:29.336Z,58.34
2023-08-22T22:19:55.862Z,57.69
2023-08-22T22:22:22.279Z,57.26
2023-08-22T22:24:48.715Z,57.31
2023-08-22T22:27:15.113Z,57.02
2023-08-22T22:29:41.529Z,58.16
2023-08-22T22:32:08.047Z,57.82
2023-08-22T22:34:34.466Z,58.54
2023-08-22T22:37:00.873Z,57.89
2023-08-22T22:39:27.280Z,59.14
